Time;durP1;ratioP1;P1;durP2;ratioP2;P2;SDS_P1;SDS_P2;PMS_P1;PMS_P2;Temp;Humidity;BMP_temperature;BMP_pressure;BME280_temperature;BME280_humidity;BME280_pressure;Samples;Min_cycle;Max_cycle;Signal;HPM_P1;HPM_P2
2021/12/14 00:01:09;;;;;;;15.90;10.53;;;;;;;3.83;100.00;97809.63;5048530;28;20441;-74
2021/12/14 00:03:40;;;;;;;32.33;13.40;;;;;;;3.80;100.00;97805.69;5052756;28;21004;-74
2021/12/14 00:06:09;;;;;;;32.23;11.50;;;;;;;3.92;100.00;97823.09;5053979;28;20983;-74
2021/12/14 00:08:47;;;;;;;18.37;10.47;;;;;;;3.91;100.00;97821.50;5055556;28;20461;-74
2021/12/14 00:14:27;;;;;;;45.50;12.70;;;;;;;3.85;100.00;97816.19;5086186;28;20421;-74
2021/12/14 00:16:57;;;;;;;29.30;11.97;;;;;;;3.84;100.00;97808.59;5052589;28;20453;-73
2021/12/14 00:19:27;;;;;;;30.67;13.97;;;;;;;3.76;100.00;97782.91;5053857;28;20490;-74
2021/12/14 00:22:03;;;;;;;34.47;11.23;;;;;;;3.78;100.00;97802.53;5052429;28;20421;-74
2021/12/14 00:24:30;;;;;;;25.27;10.90;;;;;;;3.69;100.00;97787.50;5053835;28;20478;-74
2021/12/14 00:27:03;;;;;;;20.70;10.17;;;;;;;3.77;100.00;97795.72;5052231;28;20477;-74
2021/12/14 00:29:35;;;;;;;20.17;11.30;;;;;;;3.61;100.00;97790.59;5086133;28;20443;-73
2021/12/14 00:32:07;;;;;;;21.80;10.10;;;;;;;3.70;100.00;97816.03;5035887;28;20421;-74
2021/12/14 00:34:41;;;;;;;19.77;9.93;;;;;;;3.67;100.00;97813.91;5096528;28;20434;-74
2021/12/14 00:37:16;;;;;;;16.33;10.23;;;;;;;3.77;100.00;97821.88;5065254;28;20453;-74
2021/12/14 00:39:48;;;;;;;14.57;10.10;;;;;;;3.71;100.00;97812.38;5049689;28;20452;-73
2021/12/14 00:42:16;;;;;;;19.20;9.73;;;;;;;3.64;100.00;97803.16;5075523;28;20955;-74
2021/12/14 00:44:45;;;;;;;12.23;8.90;;;;;;;3.67;100.00;97795.59;5035544;28;20536;-74
2021/12/14 00:47:12;;;;;;;18.23;9.37;;;;;;;3.61;100.00;97793.19;5053255;28;20905;-73
2021/12/14 00:49:39;;;;;;;12.40;8.20;;;;;;;3.64;100.00;97797.94;5035751;28;20437;-74
2021/12/14 00:52:09;;;;;;;11.40;8.13;;;;;;;3.58;100.00;97786.59;5052705;28;20857;-74
2021/12/14 00:54:39;;;;;;;10.37;8.17;;;;;;;3.67;100.00;97803.44;5065146;28;20445;-74
2021/12/14 00:57:08;;;;;;;11.70;8.17;;;;;;;3.68;100.00;97793.78;5088053;28;20512;-74
2021/12/14 00:59:36;;;;;;;11.50;6.90;;;;;;;3.54;100.00;97785.53;5060712;28;20453;-75
2021/12/14 01:02:24;;;;;;;12.17;9.60;;;;;;;3.98;100.00;97811.63;5051702;28;20467;-75
2021/12/14 01:04:59;;;;;;;10.30;7.67;;;;;;;4.04;100.00;97813.25;5051681;28;20425;-75
2021/12/14 01:07:31;;;;;;;10.00;7.33;;;;;;;3.98;100.00;97819.47;5051751;28;20469;-75
2021/12/14 01:10:01;;;;;;;13.33;8.90;;;;;;;3.98;100.00;97809.78;5051525;28;20520;-75
2021/12/14 01:12:53;;;;;;;12.83;8.20;;;;;;;3.79;100.00;97800.72;5051660;28;20441;-75
2021/12/14 01:16:15;;;;;;;11.90;6.40;;;;;;;3.92;100.00;97821.25;5068100;28;20417;-75
2021/12/14 01:21:27;;;;;;;25.53;9.97;;;;;;;3.71;100.00;97790.66;5068027;28;20435;-75
2021/12/14 01:24:04;;;;;;;23.80;9.17;;;;;;;3.61;100.00;97787.97;5067829;28;20445;-75
2021/12/14 01:26:38;;;;;;;15.80;9.20;;;;;;;3.75;100.00;97810.88;5052517;28;20468;-75
2021/12/14 01:29:09;;;;;;;21.20;9.77;;;;;;;3.75;100.00;97803.03;5067842;28;20457;-75
2021/12/14 01:31:41;;;;;;;21.90;10.33;;;;;;;3.61;100.00;97795.81;5067813;28;20460;-74
2021/12/14 01:34:16;;;;;;;13.23;8.50;;;;;;;3.74;100.00;97814.53;5051125;28;20461;-75
2021/12/14 01:36:48;;;;;;;17.27;9.90;;;;;;;3.70;100.00;97813.41;5051289;28;20841;-75
2021/12/14 01:39:45;;;;;;;13.30;9.40;;;;;;;3.70;100.00;97812.63;5067708;28;20441;-75
2021/12/14 01:42:20;;;;;;;13.93;8.23;;;;;;;3.72;100.00;97807.94;5051988;28;20437;-74
2021/12/14 01:44:54;;;;;;;12.80;9.40;;;;;;;3.75;100.00;97815.31;5067258;28;20516;-75
2021/12/14 01:47:37;;;;;;;19.60;10.20;;;;;;;3.74;100.00;97811.09;5051508;28;20563;-75
2021/12/14 01:50:44;;;;;;;22.57;10.63;;;;;;;3.77;100.00;97806.19;5052055;28;20536;-75
2021/12/14 01:53:33;;;;;;;19.70;9.57;;;;;;;3.91;100.00;97811.03;5053856;28;20802;-75
2021/12/14 01:56:05;;;;;;;17.80;9.83;;;;;;;3.71;100.00;97804.53;5050693;28;20501;-75
2021/12/14 01:58:40;;;;;;;27.23;9.80;;;;;;;3.77;100.00;97811.41;5034108;28;20982;-75
2021/12/14 02:01:23;;;;;;;25.50;11.27;;;;;;;3.73;100.00;97818.16;5050884;28;20455;-74
2021/12/14 02:04:09;;;;;;;16.53;10.20;;;;;;;3.72;100.00;97810.56;5083985;28;20437;-75
2021/12/14 02:06:35;;;;;;;19.57;12.10;;;;;;;3.65;100.00;97797.69;5050301;28;20480;-75
2021/12/14 02:09:13;;;;;;;14.87;8.93;;;;;;;3.76;100.00;97811.66;5050416;28;20486;-75
2021/12/14 02:11:44;;;;;;;30.33;11.40;;;;;;;3.67;100.00;97802.66;5066926;28;20437;-75
2021/12/14 02:14:12;;;;;;;16.67;11.10;;;;;;;3.59;100.00;97779.56;5049826;28;21025;-75
2021/12/14 02:16:39;;;;;;;17.77;9.53;;;;;;;3.72;100.00;97805.31;5050245;28;20971;-75
2021/12/14 02:19:13;;;;;;;15.80;9.83;;;;;;;3.72;100.00;97800.88;5050623;28;20448;-75
2021/12/14 02:21:42;;;;;;;14.70;8.30;;;;;;;3.71;100.00;97788.84;5050355;28;20516;-75
2021/12/14 02:24:11;;;;;;;15.57;8.00;;;;;;;3.70;100.00;97781.25;5050251;28;20448;-75
2021/12/14 02:26:42;;;;;;;14.50;9.03;;;;;;;3.61;100.00;97777.50;5036977;28;20465;-75
2021/12/14 02:29:19;;;;;;;8.73;7.80;;;;;;;3.68;100.00;97789.34;5052114;28;20478;-75
2021/12/14 02:31:46;;;;;;;9.93;7.33;;;;;;;3.63;100.00;97778.84;5069948;28;20480;-75
2021/12/14 02:34:13;;;;;;;13.87;7.50;;;;;;;3.53;100.00;97770.88;5053236;28;20441;-75
2021/12/14 02:36:45;;;;;;;24.27;9.13;;;;;;;3.64;100.00;97790.88;5052635;28;20461;-75
2021/12/14 02:42:02;;;;;;;14.90;8.87;;;;;;;3.60;100.00;97794.22;5053711;28;20433;-75
2021/12/14 02:44:30;;;;;;;16.00;9.33;;;;;;;3.52;100.00;97777.94;5036281;28;20468;-75
2021/12/14 02:47:08;;;;;;;20.10;9.03;;;;;;;3.61;100.00;97786.16;5057481;28;20464;-75
2021/12/14 02:49:37;;;;;;;16.53;10.17;;;;;;;3.67;100.00;97789.59;5058621;28;20491;-74
2021/12/14 02:52:11;;;;;;;21.10;10.20;;;;;;;3.72;100.00;97793.03;5058115;28;20437;-75
2021/12/14 02:54:41;;;;;;;24.10;10.70;;;;;;;3.70;100.00;97789.88;5057669;28;20966;-75
2021/12/14 02:57:16;;;;;;;15.73;9.33;;;;;;;3.71;100.00;97788.84;5059427;28;20495;-75
2021/12/14 02:59:47;;;;;;;12.47;8.80;;;;;;;3.76;100.00;97783.69;5057577;28;20947;-75
2021/12/14 03:02:19;;;;;;;12.70;8.23;;;;;;;3.78;100.00;97784.22;5075299;28;20433;-75
2021/12/14 03:04:54;;;;;;;10.50;7.90;;;;;;;3.69;100.00;97771.81;5042879;28;20881;-75
2021/12/14 03:07:25;;;;;;;11.97;7.00;;;;;;;3.54;100.00;97757.56;5052890;28;20479;-73
2021/12/14 03:09:59;;;;;;;13.50;7.80;;;;;;;3.68;100.00;97778.88;5050000;28;20498;-73
2021/12/14 03:12:40;;;;;;;6.63;5.73;;;;;;;3.78;100.00;97784.22;5049779;28;20480;-73
2021/12/14 03:15:27;;;;;;;8.00;6.33;;;;;;;3.94;100.00;97777.31;5051186;28;20480;-74
2021/12/14 03:17:58;;;;;;;7.50;6.23;;;;;;;3.89;100.00;97774.66;5066582;28;20548;-74
2021/12/14 03:20:59;;;;;;;7.30;5.83;;;;;;;3.69;100.00;97769.22;5049462;28;20445;-74
2021/12/14 03:23:29;;;;;;;8.50;6.73;;;;;;;3.73;100.00;97775.50;5037138;28;20503;-74
2021/12/14 03:25:58;;;;;;;9.30;6.90;;;;;;;3.75;100.00;97770.84;5050406;28;20441;-74
2021/12/14 03:28:27;;;;;;;7.07;5.90;;;;;;;3.58;100.00;97752.63;5054815;28;20468;-74
2021/12/14 03:31:18;;;;;;;13.90;8.00;;;;;;;3.43;100.00;97734.94;5053944;28;20464;-74
2021/12/14 03:33:49;;;;;;;8.10;6.97;;;;;;;3.59;100.00;97764.66;5053364;28;20951;-74
2021/12/14 03:36:23;;;;;;;13.50;6.93;;;;;;;3.56;100.00;97763.31;5053151;28;20464;-74
2021/12/14 03:39:05;;;;;;;7.90;6.50;;;;;;;3.60;100.00;97768.84;5069992;28;20429;-74
2021/12/14 03:41:52;;;;;;;10.40;6.10;;;;;;;3.52;100.00;97762.25;5069879;28;20517;-74
2021/12/14 03:44:23;;;;;;;13.37;7.83;;;;;;;3.53;100.00;97771.66;5053310;28;20437;-74
2021/12/14 03:46:56;;;;;;;7.90;6.90;;;;;;;3.34;100.00;97744.28;5053338;28;20480;-74
2021/12/14 03:49:30;;;;;;;9.57;6.43;;;;;;;3.54;100.00;97777.69;5054797;28;21266;-74
2021/12/14 03:51:59;;;;;;;8.47;6.33;;;;;;;3.52;100.00;97767.47;5053205;28;20444;-74
2021/12/14 03:54:26;;;;;;;6.70;5.37;;;;;;;3.56;100.00;97771.16;5053142;28;20448;-74
2021/12/14 03:56:54;;;;;;;7.37;5.80;;;;;;;3.55;100.00;97764.34;5053056;28;20453;-74
2021/12/14 03:59:29;;;;;;;7.57;6.03;;;;;;;3.47;100.00;97759.56;5052933;28;20437;-74
2021/12/14 04:01:59;;;;;;;9.67;6.57;;;;;;;3.53;100.00;97755.19;5069528;28;20848;-74
2021/12/14 04:04:36;;;;;;;15.03;10.43;;;;;;;3.47;100.00;97748.31;5036560;28;20437;-74
2021/12/14 04:07:06;;;;;;;12.10;8.10;;;;;;;3.50;100.00;97755.69;5052686;28;20579;-74
2021/12/14 04:09:36;;;;;;;7.33;6.63;;;;;;;3.47;100.00;97743.91;5052708;28;20433;-74
2021/12/14 04:12:13;;;;;;;7.07;6.10;;;;;;;3.42;100.00;97737.81;5053299;28;20948;-74
2021/12/14 04:14:44;;;;;;;8.53;6.30;;;;;;;3.47;100.00;97738.66;5069658;28;20490;-74
2021/12/14 04:17:12;;;;;;;7.00;6.30;;;;;;;3.51;100.00;97736.34;5052804;28;20691;-74
2021/12/14 04:19:40;;;;;;;8.33;7.37;;;;;;;3.55;100.00;97748.66;5052747;28;20433;-74
2021/12/14 04:22:12;;;;;;;8.60;6.97;;;;;;;3.71;100.00;97743.59;5068965;28;20443;-74
2021/12/14 04:24:42;;;;;;;13.50;7.60;;;;;;;3.62;100.00;97730.19;5052513;28;20483;-74
2021/12/14 04:27:16;;;;;;;12.73;7.60;;;;;;;3.67;100.00;97740.69;5069070;28;20472;-74
2021/12/14 04:29:43;;;;;;;15.53;7.80;;;;;;;3.63;100.00;97738.81;5052366;28;20937;-74
2021/12/14 04:32:12;;;;;;;19.77;9.80;;;;;;;3.44;100.00;97718.22;5052535;28;21057;-74
2021/12/14 04:34:40;;;;;;;10.53;5.70;;;;;;;3.53;100.00;97734.28;5068941;28;20468;-74
2021/12/14 04:37:07;;;;;;;10.50;7.00;;;;;;;3.62;100.00;97734.63;5051465;28;20477;-74
2021/12/14 04:39:41;;;;;;;6.07;5.23;;;;;;;3.61;100.00;97735.66;5052280;28;20439;-74
2021/12/14 04:53:49;;;;;;;4.90;4.23;;;;;;;3.49;100.00;97723.50;5068582;28;20441;-73
2021/12/14 04:56:31;;;;;;;5.83;4.97;;;;;;;3.40;100.00;97719.75;5052080;28;20475;-74
2021/12/14 04:59:25;;;;;;;5.27;4.50;;;;;;;3.47;100.00;97706.47;5068902;28;20444;-74
2021/12/14 05:01:59;;;;;;;5.57;5.07;;;;;;;3.45;100.00;97713.78;5052154;28;20441;-74
2021/12/14 05:04:50;;;;;;;5.27;4.30;;;;;;;3.39;100.00;97710.34;5052001;28;20955;-74
2021/12/14 05:10:08;;;;;;;17.93;8.03;;;;;;;3.51;100.00;97723.28;5053808;28;20441;-74
2021/12/14 05:12:37;;;;;;;12.03;7.80;;;;;;;3.50;100.00;97734.75;5068461;28;20465;-75
2021/12/14 05:15:11;;;;;;;12.80;6.30;;;;;;;3.46;100.00;97723.19;5051577;28;20441;-75
2021/12/14 05:17:45;;;;;;;5.60;4.70;;;;;;;3.42;100.00;97691.53;5085221;28;20464;-75
2021/12/14 05:20:16;;;;;;;5.77;4.90;;;;;;;3.53;100.00;97710.72;5068245;28;20536;-75
2021/12/14 05:22:44;;;;;;;5.03;4.50;;;;;;;3.51;100.00;97704.97;5067867;28;20495;-75
2021/12/14 05:25:24;;;;;;;6.27;4.30;;;;;;;3.55;100.00;97706.84;5035343;28;21173;-75
2021/12/14 05:27:57;;;;;;;5.43;4.67;;;;;;;3.42;100.00;97685.53;5052093;28;20495;-75
2021/12/14 05:30:33;;;;;;;8.33;4.27;;;;;;;3.60;100.00;97694.84;5035228;28;20855;-75
2021/12/14 05:33:21;;;;;;;7.37;4.00;;;;;;;3.60;100.00;97692.22;5051235;28;20437;-75
2021/12/14 05:35:53;;;;;;;5.40;4.57;;;;;;;3.53;100.00;97688.00;5034718;28;20465;-75
2021/12/14 05:38:29;;;;;;;5.40;4.03;;;;;;;3.54;100.00;97688.78;5034954;28;20441;-75
2021/12/14 05:44:04;;;;;;;5.77;4.90;;;;;;;3.53;100.00;97674.13;5051197;28;20494;-75
2021/12/14 05:46:50;;;;;;;5.37;4.90;;;;;;;3.56;100.00;97679.66;5051529;28;20473;-75
2021/12/14 05:49:31;;;;;;;4.90;4.47;;;;;;;3.53;100.00;97677.53;5050004;28;20504;-75
2021/12/14 05:52:00;;;;;;;8.40;7.67;;;;;;;3.56;100.00;97687.50;5084411;28;20453;-74
2021/12/14 05:54:31;;;;;;;5.70;4.40;;;;;;;3.62;100.00;97679.72;5052292;28;20941;-75
2021/12/14 05:57:04;;;;;;;4.83;4.43;;;;;;;3.60;100.00;97679.94;5050899;28;20891;-75
2021/12/14 05:59:33;;;;;;;4.97;4.40;;;;;;;3.72;100.00;97679.78;5050895;28;20422;-75
2021/12/14 06:02:06;;;;;;;4.40;4.10;;;;;;;3.62;100.00;97667.44;5050841;28;20816;-75
2021/12/14 06:04:38;;;;;;;4.40;4.00;;;;;;;3.70;100.00;97666.94;5067489;28;20444;-75
2021/12/14 06:07:05;;;;;;;5.03;4.57;;;;;;;3.69;100.00;97678.47;5051184;28;20461;-75
2021/12/14 06:09:37;;;;;;;4.87;4.40;;;;;;;3.69;100.00;97680.28;5067776;28;20441;-75
2021/12/14 06:12:15;;;;;;;6.07;4.63;;;;;;;3.66;100.00;97671.13;5035179;28;20429;-74
2021/12/14 06:14:51;;;;;;;6.40;4.47;;;;;;;3.71;100.00;97671.16;5050684;28;20943;-75
2021/12/14 06:17:45;;;;;;;5.37;4.67;;;;;;;3.71;100.00;97670.38;5050714;28;20835;-75
2021/12/14 06:20:35;;;;;;;7.80;5.70;;;;;;;3.72;100.00;97658.84;5061070;28;20445;-75
2021/12/14 06:23:06;;;;;;;9.83;7.30;;;;;;;3.79;100.00;97675.16;5051043;28;20508;-75
2021/12/14 06:26:05;;;;;;;10.77;8.33;;;;;;;3.64;100.00;97649.66;5040792;28;20473;-75
2021/12/14 06:28:32;;;;;;;5.23;4.73;;;;;;;3.78;100.00;97661.28;5050479;28;20465;-75
2021/12/14 06:31:03;;;;;;;9.33;6.50;;;;;;;3.84;100.00;97656.88;5050383;28;20437;-75
2021/12/14 06:33:32;;;;;;;9.73;7.93;;;;;;;3.81;100.00;97671.25;5067035;28;20441;-75
2021/12/14 06:36:01;;;;;;;10.90;8.70;;;;;;;3.79;100.00;97673.31;5033662;28;20445;-75
2021/12/14 06:38:34;;;;;;;10.93;7.93;;;;;;;3.77;100.00;97666.75;5050892;28;20421;-75
2021/12/14 06:41:22;;;;;;;8.70;7.07;;;;;;;3.94;100.00;97693.59;5051537;28;20464;-75
2021/12/14 06:43:58;;;;;;;7.67;6.73;;;;;;;3.93;100.00;97684.16;5035264;28;20429;-74
2021/12/14 06:46:34;;;;;;;4.47;4.07;;;;;;;4.08;100.00;97673.81;5050663;28;20496;-74
2021/12/14 06:49:12;;;;;;;6.23;4.53;;;;;;;4.18;100.00;97672.31;5051786;28;20461;-75
2021/12/14 06:51:46;;;;;;;4.40;4.10;;;;;;;4.09;100.00;97669.38;5052829;28;20516;-74
2021/12/14 06:54:51;;;;;;;6.70;5.30;;;;;;;4.24;100.00;97668.69;5043542;28;20468;-75
2021/12/14 06:57:36;;;;;;;5.30;4.80;;;;;;;4.24;100.00;97676.53;5054077;28;20448;-75
2021/12/14 07:00:13;;;;;;;4.57;4.17;;;;;;;4.28;100.00;97672.38;5052783;28;20437;-75
2021/12/14 07:02:56;;;;;;;5.63;5.13;;;;;;;4.23;100.00;97675.75;5069893;28;20441;-74
2021/12/14 07:05:44;;;;;;;7.03;5.13;;;;;;;4.29;100.00;97693.06;5054823;28;20457;-74
2021/12/14 07:08:22;;;;;;;12.17;10.97;;;;;;;4.28;100.00;97701.19;5069510;28;20465;-75
2021/12/14 07:10:49;;;;;;;10.50;9.03;;;;;;;4.25;100.00;97699.84;5053055;28;20479;-75
2021/12/14 07:13:20;;;;;;;8.87;8.07;;;;;;;4.18;100.00;97686.19;5069200;28;20441;-75
2021/12/14 07:15:48;;;;;;;6.87;6.23;;;;;;;4.23;100.00;97683.59;5053792;28;20425;-75
2021/12/14 07:18:15;;;;;;;7.60;6.83;;;;;;;4.22;100.00;97682.03;5050290;28;20444;-75
2021/12/14 07:20:49;;;;;;;57.27;40.13;;;;;;;4.31;100.00;97691.00;5033329;28;20447;-75
2021/12/14 07:23:31;;;;;;;61.00;44.60;;;;;;;4.24;100.00;97679.94;5049771;28;20428;-75
2021/12/14 07:26:07;;;;;;;53.50;37.47;;;;;;;4.09;100.00;97651.81;5049829;28;20461;-75
2021/12/14 07:28:43;;;;;;;57.20;41.07;;;;;;;4.35;100.00;97688.66;5049966;28;20482;-75
2021/12/14 07:31:28;;;;;;;24.97;15.53;;;;;;;4.03;100.00;97652.84;5049855;28;20429;-75
2021/12/14 07:33:58;;;;;;;16.13;12.07;;;;;;;4.24;100.00;97682.56;5049562;28;20437;-75
2021/12/14 07:36:32;;;;;;;9.33;8.43;;;;;;;4.28;100.00;97698.56;5049500;28;20486;-75
2021/12/14 07:39:05;;;;;;;8.07;7.27;;;;;;;4.35;100.00;97715.63;5049558;28;20430;-75
2021/12/14 07:41:42;;;;;;;12.83;7.53;;;;;;;4.32;100.00;97700.41;5050906;28;20413;-75
2021/12/14 07:44:38;;;;;;;13.87;8.47;;;;;;;4.35;100.00;97702.53;5049573;28;20459;-75
2021/12/14 07:47:15;;;;;;;7.80;7.10;;;;;;;4.38;100.00;97709.88;5049811;28;20957;-75
2021/12/14 07:49:46;;;;;;;9.90;7.10;;;;;;;4.13;100.00;97684.31;5049578;28;20428;-75
2021/12/14 07:52:24;;;;;;;9.73;7.40;;;;;;;4.24;100.00;97713.97;5049673;28;20786;-75
2021/12/14 07:54:55;;;;;;;10.70;7.90;;;;;;;4.21;100.00;97718.91;5050879;28;20440;-75
2021/12/14 07:57:27;;;;;;;16.27;12.70;;;;;;;4.21;100.00;97703.22;5049461;28;20469;-75
2021/12/14 07:59:55;;;;;;;15.03;10.07;;;;;;;4.23;100.00;97704.53;5049637;28;20782;-75
2021/12/14 08:02:28;;;;;;;15.23;10.37;;;;;;;4.16;100.00;97677.81;5049443;28;20465;-75
2021/12/14 08:05:00;;;;;;;16.77;8.90;;;;;;;4.18;100.00;97688.81;5049367;28;20483;-75
2021/12/14 08:07:33;;;;;;;13.47;7.80;;;;;;;4.22;100.00;97697.72;5049225;28;20467;-75
2021/12/14 08:10:13;;;;;;;14.17;9.77;;;;;;;4.25;100.00;97704.28;5049342;28;20483;-75
2021/12/14 08:12:45;;;;;;;7.87;7.07;;;;;;;4.23;100.00;97701.13;5051110;28;20459;-74
2021/12/14 08:15:24;;;;;;;6.87;6.00;;;;;;;4.12;100.00;97708.13;5054248;28;20456;-75
2021/12/14 08:18:05;;;;;;;7.30;6.50;;;;;;;4.10;100.00;97712.81;5052636;28;20503;-75
2021/12/14 08:20:35;;;;;;;7.70;6.83;;;;;;;4.04;100.00;97704.13;5052904;28;20424;-75
2021/12/14 08:23:21;;;;;;;5.90;5.07;;;;;;;4.11;100.00;97717.00;5052890;28;20464;-75
2021/12/14 08:25:49;;;;;;;9.43;6.47;;;;;;;3.89;100.00;97683.09;5052476;28;20522;-75
2021/12/14 08:28:21;;;;;;;12.93;6.87;;;;;;;3.91;100.00;97694.09;5052646;28;20987;-75
2021/12/14 08:31:07;;;;;;;10.00;6.83;;;;;;;3.93;100.00;97705.09;5053817;28;20433;-75
2021/12/14 08:33:34;;;;;;;9.33;6.27;;;;;;;3.96;100.00;97717.66;5052560;28;20819;-75
2021/12/14 08:36:05;;;;;;;6.93;5.23;;;;;;;3.93;100.00;97712.94;5052414;28;21037;-75
2021/12/14 08:38:34;;;;;;;6.17;4.40;;;;;;;3.89;100.00;97717.09;5052198;28;20440;-75
2021/12/14 08:41:15;;;;;;;5.30;4.40;;;;;;;3.68;100.00;97697.81;5053665;28;20461;-75
2021/12/14 08:43:48;;;;;;;5.33;4.70;;;;;;;3.84;100.00;97733.53;5052367;28;20538;-74
2021/12/14 08:46:27;;;;;;;8.10;5.63;;;;;;;3.80;100.00;97708.13;5052417;28;20493;-75
2021/12/14 08:48:59;;;;;;;6.67;4.40;;;;;;;3.90;100.00;97725.75;5052561;28;20840;-75
2021/12/14 08:51:31;;;;;;;5.23;4.73;;;;;;;3.91;100.00;97728.09;5053663;28;20452;-75
2021/12/14 08:54:22;;;;;;;5.07;4.30;;;;;;;3.75;100.00;97721.94;5068985;28;20501;-75
2021/12/14 08:56:51;;;;;;;5.60;4.80;;;;;;;3.93;100.00;97743.56;5035149;28;20556;-76
2021/12/14 08:59:18;;;;;;;4.40;4.00;;;;;;;3.89;100.00;97737.25;5052309;28;20477;-75
2021/12/14 09:01:47;;;;;;;4.40;3.30;;;;;;;3.81;100.00;97715.72;5054988;28;21023;-75
2021/12/14 09:04:29;;;;;;;5.50;3.90;;;;;;;3.96;100.00;97737.81;5053268;28;20430;-75
2021/12/14 09:07:00;;;;;;;5.00;4.07;;;;;;;3.97;100.00;97732.34;5054213;28;20861;-75
2021/12/14 09:09:27;;;;;;;3.50;3.20;;;;;;;3.88;100.00;97710.28;5051968;28;20883;-75
2021/12/14 09:12:09;;;;;;;9.97;7.00;;;;;;;4.00;100.00;97726.59;5035357;28;20440;-75
2021/12/14 09:14:37;;;;;;;9.00;7.07;;;;;;;3.93;100.00;97723.41;5068450;28;20969;-75
2021/12/14 09:17:06;;;;;;;6.63;5.93;;;;;;;3.85;100.00;97716.00;5068362;28;20461;-75
2021/12/14 09:19:41;;;;;;;4.10;3.70;;;;;;;3.84;100.00;97735.34;5051648;28;20440;-75
2021/12/14 09:22:16;;;;;;;13.60;9.20;;;;;;;3.65;100.00;97711.38;5068247;28;20484;-75
2021/12/14 09:24:43;;;;;;;12.17;10.00;;;;;;;3.69;100.00;97716.91;5051401;28;20512;-75
2021/12/14 09:27:14;;;;;;;6.80;4.70;;;;;;;3.74;100.00;97737.88;5051326;28;20460;-75
2021/12/14 09:29:41;;;;;;;7.20;5.30;;;;;;;3.82;100.00;97719.13;5051206;28;20511;-75
2021/12/14 09:32:11;;;;;;;8.53;4.60;;;;;;;3.82;100.00;97732.19;5067958;28;20479;-75
2021/12/14 09:34:40;;;;;;;6.27;5.77;;;;;;;3.86;100.00;97709.72;5052522;28;20432;-75
2021/12/14 09:37:10;;;;;;;5.23;4.73;;;;;;;3.89;100.00;97721.53;5052450;28;20472;-75
2021/12/14 09:39:41;;;;;;;11.37;6.23;;;;;;;3.89;100.00;97717.09;5034657;28;20816;-75
2021/12/14 09:42:13;;;;;;;6.73;6.00;;;;;;;3.88;100.00;97723.38;5052489;28;20463;-75
2021/12/14 09:44:40;;;;;;;6.37;4.90;;;;;;;3.69;100.00;97699.38;5052353;28;20483;-75
2021/12/14 09:47:12;;;;;;;6.80;5.33;;;;;;;3.68;100.00;97673.47;5050916;28;20461;-75
2021/12/14 09:49:40;;;;;;;7.47;5.13;;;;;;;3.94;100.00;97704.06;5052243;28;20453;-75
2021/12/14 09:52:23;;;;;;;7.23;6.53;;;;;;;3.99;100.00;97708.53;5050818;28;20440;-75
2021/12/14 09:54:52;;;;;;;5.23;4.73;;;;;;;4.01;100.00;97711.72;5052139;28;20433;-75
2021/12/14 09:57:37;;;;;;;5.53;4.53;;;;;;;3.98;100.00;97699.09;5050706;28;20544;-75
2021/12/14 10:00:13;;;;;;;6.07;5.00;;;;;;;3.98;100.00;97697.28;5050867;28;20896;-75
2021/12/14 10:02:42;;;;;;;3.40;3.10;;;;;;;4.19;100.00;97700.84;5067242;28;20445;-75
2021/12/14 10:05:11;;;;;;;3.97;3.57;;;;;;;4.34;100.00;97705.41;5050547;28;20445;-75
2021/12/14 10:07:38;;;;;;;4.43;4.00;;;;;;;4.28;100.00;97707.22;5034049;28;20492;-75
2021/12/14 10:10:08;;;;;;;4.53;4.00;;;;;;;4.19;100.00;97713.16;5050327;28;20465;-75
2021/12/14 10:12:49;;;;;;;5.50;4.37;;;;;;;4.28;100.00;97724.75;5051769;28;20433;-75
2021/12/14 10:15:21;;;;;;;2.93;2.63;;;;;;;4.13;100.00;97730.63;5067086;28;20437;-75
2021/12/14 10:17:52;;;;;;;2.50;2.30;;;;;;;4.03;100.00;97744.44;5050415;28;20461;-75
2021/12/14 10:20:24;;;;;;;2.67;2.47;;;;;;;4.10;100.00;97752.06;5050418;28;20434;-75
2021/12/14 10:22:52;;;;;;;3.10;2.80;;;;;;;4.13;100.00;97741.09;5051667;28;20418;-75
2021/12/14 10:25:23;;;;;;;3.30;2.43;;;;;;;4.12;100.00;97737.69;5051620;28;20433;-75
2021/12/14 10:27:50;;;;;;;3.47;3.17;;;;;;;4.29;100.00;97745.44;5050146;28;20916;-75
2021/12/14 10:30:35;;;;;;;5.20;3.63;;;;;;;4.22;100.00;97741.44;5050093;28;20457;-75
2021/12/14 10:33:02;;;;;;;3.23;3.03;;;;;;;4.17;100.00;97729.09;5051511;28;20452;-75
2021/12/14 10:35:39;;;;;;;4.57;3.43;;;;;;;4.28;100.00;97740.44;5049549;28;20939;-75
2021/12/14 10:38:18;;;;;;;4.13;3.47;;;;;;;4.28;100.00;97750.94;5033518;28;21290;-75
2021/12/14 10:43:36;;;;;;;5.17;3.63;;;;;;;4.13;100.00;97767.28;5066686;28;20974;-75
2021/12/14 10:46:19;;;;;;;5.10;4.07;;;;;;;3.97;100.00;97755.09;5050128;28;20515;-75
2021/12/14 10:48:48;;;;;;;4.00;3.30;;;;;;;4.03;100.00;97761.97;5033567;28;20456;-75
2021/12/14 10:51:20;;;;;;;5.50;4.10;;;;;;;4.00;100.00;97758.00;5050050;28;20445;-75
2021/12/14 10:53:50;;;;;;;4.87;3.80;;;;;;;3.95;100.00;97751.94;5049888;28;20469;-75
2021/12/14 10:56:45;;;;;;;5.83;4.23;;;;;;;4.20;100.00;97756.59;5049828;28;20516;-75
2021/12/14 10:59:16;;;;;;;4.90;4.50;;;;;;;3.85;100.00;97731.69;5050513;28;20858;-75
2021/12/14 11:01:49;;;;;;;4.40;4.00;;;;;;;3.88;100.00;97740.91;5066491;28;20912;-74
2021/12/14 11:04:34;;;;;;;6.33;4.27;;;;;;;3.91;100.00;97740.41;5066172;28;21004;-74
2021/12/14 11:07:02;;;;;;;6.00;3.40;;;;;;;3.90;100.00;97731.75;5051098;28;20498;-74
2021/12/14 11:09:42;;;;;;;5.60;3.93;;;;;;;4.09;100.00;97740.03;5066615;28;20461;-75
2021/12/14 11:12:19;;;;;;;5.10;3.90;;;;;;;4.29;100.00;97737.59;5066319;28;20468;-75
2021/12/14 11:14:51;;;;;;;5.03;4.47;;;;;;;4.14;100.00;97727.78;5049551;28;20814;-75
2021/12/14 11:20:07;;;;;;;5.57;4.00;;;;;;;4.30;100.00;97733.13;5051589;28;20815;-75
2021/12/14 11:22:50;;;;;;;3.90;3.43;;;;;;;4.18;100.00;97714.19;5049593;28;20491;-76
2021/12/14 11:25:37;;;;;;;4.97;3.83;;;;;;;4.29;100.00;97713.22;5049602;28;20440;-76
2021/12/14 11:28:12;;;;;;;5.77;4.27;;;;;;;4.29;100.00;97710.63;5033095;28;20485;-76
2021/12/14 11:31:04;;;;;;;5.70;5.20;;;;;;;4.37;100.00;97704.91;5050906;28;20494;-75
2021/12/14 11:33:42;;;;;;;6.17;4.37;;;;;;;4.40;100.00;97710.41;5049611;28;20804;-76
2021/12/14 11:36:14;;;;;;;4.80;3.90;;;;;;;4.58;100.00;97708.44;5065785;28;20482;-75
2021/12/14 11:38:47;;;;;;;4.77;3.90;;;;;;;4.31;100.00;97695.44;5050874;28;20478;-75
2021/12/14 11:41:44;;;;;;;4.47;3.87;;;;;;;4.31;100.00;97705.91;5050833;28;20885;-75
2021/12/14 11:44:23;;;;;;;6.13;4.20;;;;;;;4.23;100.00;97699.31;5050891;28;20417;-75
2021/12/14 11:46:59;;;;;;;6.10;3.97;;;;;;;4.42;100.00;97721.44;5050039;28;20499;-75
2021/12/14 11:49:51;;;;;;;4.90;3.93;;;;;;;4.41;100.00;97711.22;5053273;28;20453;-75
2021/12/14 11:52:49;;;;;;;5.07;3.80;;;;;;;4.30;100.00;97710.38;5053832;28;20540;-75
2021/12/14 11:55:28;;;;;;;4.70;4.07;;;;;;;4.44;100.00;97708.88;5036581;28;20437;-75
2021/12/14 11:58:07;;;;;;;7.97;5.80;;;;;;;4.45;100.00;97712.28;5052892;28;21210;-75
2021/12/14 12:00:36;;;;;;;6.33;4.57;;;;;;;4.09;100.00;97651.81;5036538;28;20962;-75
2021/12/14 12:03:24;;;;;;;7.43;4.30;;;;;;;4.55;100.00;97701.09;5036373;28;20441;-75
2021/12/14 12:06:08;;;;;;;5.97;5.23;;;;;;;4.58;100.00;97690.13;5052794;28;20421;-75
2021/12/14 12:11:33;;;;;;;4.73;3.60;;;;;;;4.58;100.00;97685.66;5069412;28;20555;-75
2021/12/14 12:14:00;;;;;;;4.50;3.67;;;;;;;4.64;100.00;97675.97;5053057;28;20459;-75
2021/12/14 12:16:27;;;;;;;3.10;2.80;;;;;;;4.72;100.00;97686.00;5053972;28;20448;-75
2021/12/14 12:19:14;;;;;;;3.07;2.77;;;;;;;4.73;100.00;97687.56;5052969;28;20498;-75
2021/12/14 12:21:44;;;;;;;3.50;3.20;;;;;;;4.55;100.00;97674.91;5053938;28;20990;-75
2021/12/14 12:24:35;;;;;;;4.13;3.03;;;;;;;4.67;100.00;97692.00;5053980;28;20418;-75
2021/12/14 12:27:57;;;;;;;3.30;2.77;;;;;;;4.63;100.00;97688.28;5052506;28;20930;-75
2021/12/14 12:30:41;;;;;;;3.73;3.33;;;;;;;4.74;100.00;97692.56;5032067;28;20469;-75
2021/12/14 12:33:23;;;;;;;3.00;2.80;;;;;;;4.76;100.00;97694.91;5052598;28;20483;-75
2021/12/14 12:36:00;;;;;;;3.30;3.00;;;;;;;4.78;100.00;97684.97;5052593;28;20794;-75
2021/12/14 12:38:42;;;;;;;2.80;2.40;;;;;;;4.55;100.00;97678.31;5052472;28;20445;-75
2021/12/14 12:41:27;;;;;;;6.77;4.90;;;;;;;4.82;100.00;97682.63;5052552;28;20954;-75